Time,TemperatureF,DewpointF,PressureIn,WindDirection,WindDirectionDegrees,WindSpeedMPH,WindSpeedGustMPH,Humidity,HourlyPrecipIn,Conditions,Clouds,dailyrainin,SoftwareType,DateUTC
2013-09-10 00:13:00,-999.0,-99.9,30.06,East,83,11.0,17.0,-999,-99.99,,,-99.99,,2013-09-10 04:13:00,
2013-09-10 00:34:00,-999.0,-99.9,30.06,East,89,13.0,18.0,-999,-99.99,,,-99.99,,2013-09-10 04:34:00,
2013-09-10 00:53:00,-999.0,-99.9,30.06,East,94,10.0,16.0,-999,-99.99,,,-99.99,,2013-09-10 04:53:00,
2013-09-10 01:23:00,-999.0,-99.9,30.06,East,86,11.0,14.0,-999,-99.99,,,-99.99,,2013-09-10 05:23:00,
2013-09-10 01:34:00,-999.0,-99.9,30.06,East,87,10.0,14.0,-999,-99.99,,,-99.99,,2013-09-10 05:34:00,
2013-09-10 01:53:00,-999.0,-99.9,30.06,East,87,10.0,13.0,-999,-99.99,,,-99.99,,2013-09-10 05:53:00,
2013-09-10 02:22:00,-999.0,-99.9,30.05,East,83,10.0,13.0,-999,-99.99,,,-99.99,,2013-09-10 06:22:00,
2013-09-10 02:52:00,80.0,-99.9,30.04,North,-999,-999.0,-999.0,-999,-99.99,,,-99.99,,2013-09-10 06:52:00,
2013-09-10 03:01:00,-999.0,-99.9,30.04,East,87,11.0,14.0,-999,-99.99,,,-99.99,,2013-09-10 07:01:00,
2013-09-10 03:42:00,-999.0,-99.9,30.03,East,83,9.0,14.0,-999,-99.99,,,-99.99,,2013-09-10 07:42:00,
2013-09-10 04:12:00,-999.0,-99.9,30.03,East,79,9.0,12.0,-999,-99.99,,,-99.99,,2013-09-10 08:12:00,
2013-09-10 04:32:00,-999.0,-99.9,30.02,ENE,74,7.0,13.0,-999,-99.99,,,-99.99,,2013-09-10 08:32:00,
2013-09-10 04:52:00,-999.0,-99.9,30.02,ENE,73,7.0,13.0,-999,-99.99,,,-99.99,,2013-09-10 08:52:00,
2013-09-10 05:02:00,-999.0,-99.9,30.02,ENE,69,7.0,13.0,-999,-99.99,,,-99.99,,2013-09-10 09:02:00,
2013-09-10 05:12:00,-999.0,-99.9,30.02,ENE,70,5.0,11.0,-999,-99.99,,,-99.99,,2013-09-10 09:12:00,
2013-09-10 05:22:00,-999.0,-99.9,30.02,ENE,69,5.0,11.0,-999,-99.99,,,-99.99,,2013-09-10 09:22:00,
2013-09-10 05:54:00,-999.0,-99.9,30.03,ENE,59,7.0,11.0,-999,-99.99,,,-99.99,,2013-09-10 09:54:00,
2013-09-10 06:13:00,-999.0,-99.9,30.04,East,85,9.0,14.0,-999,-99.99,,,-99.99,,2013-09-10 10:13:00,
2013-09-10 06:33:00,-999.0,-99.9,30.04,East,82,9.0,12.0,-999,-99.99,,,-99.99,,2013-09-10 10:33:00,
2013-09-10 07:03:00,-999.0,-99.9,30.06,ENE,59,6.0,11.0,-999,-99.99,,,-99.99,,2013-09-10 11:03:00,
2013-09-10 07:22:00,-999.0,-99.9,30.06,ENE,57,5.0,11.0,-999,-99.99,,,-99.99,,2013-09-10 11:22:00,
2013-09-10 07:42:00,-999.0,-99.9,30.07,ENE,69,5.0,9.0,-999,-99.99,,,-99.99,,2013-09-10 11:42:00,
2013-09-10 07:52:00,79.0,-99.9,30.07,North,-999,-999.0,-999.0,-999,-99.99,,,-99.99,,2013-09-10 11:52:00,
2013-09-10 08:12:00,-999.0,-99.9,30.07,NE,56,6.0,11.0,-999,-99.99,,,-99.99,,2013-09-10 12:12:00,
2013-09-10 08:22:00,-999.0,-99.9,30.08,ENE,61,7.0,10.0,-999,-99.99,,,-99.99,,2013-09-10 12:22:00,
2013-09-10 08:32:00,-999.0,-99.9,30.09,NE,55,6.0,12.0,-999,-99.99,,,-99.99,,2013-09-10 12:32:00,
2013-09-10 08:42:00,-999.0,-99.9,30.09,ENE,62,6.0,11.0,-999,-99.99,,,-99.99,,2013-09-10 12:42:00,
2013-09-10 08:52:00,-999.0,-99.9,30.09,ENE,62,7.0,13.0,-999,-99.99,,,-99.99,,2013-09-10 12:52:00,
2013-09-10 09:02:00,-999.0,-99.9,30.09,ENE,63,6.0,12.0,-999,-99.99,,,-99.99,,2013-09-10 13:02:00,
2013-09-10 09:11:00,-999.0,-99.9,30.09,ENE,69,7.0,11.0,-999,-99.99,,,-99.99,,2013-09-10 13:11:00,
2013-09-10 09:21:00,-999.0,-99.9,30.09,ENE,69,6.0,10.0,-999,-99.99,,,-99.99,,2013-09-10 13:21:00,
2013-09-10 09:32:00,-999.0,-99.9,30.10,ENE,66,5.0,9.0,-999,-99.99,,,-99.99,,2013-09-10 13:32:00,
2013-09-10 09:52:00,-999.0,-99.9,30.10,ENE,74,7.0,13.0,-999,-99.99,,,-99.99,,2013-09-10 13:52:00,
2013-09-10 10:32:00,-999.0,-99.9,30.11,ENE,74,8.0,11.0,-999,-99.99,,,-99.99,,2013-09-10 14:32:00,
2013-09-10 11:12:00,-999.0,-99.9,30.12,East,81,9.0,14.0,-999,-99.99,,,-99.99,,2013-09-10 15:12:00,
2013-09-10 11:43:00,-999.0,-99.9,30.11,East,84,10.0,13.0,-999,-99.99,,,-99.99,,2013-09-10 15:43:00,
2013-09-10 11:54:00,-999.0,-99.9,30.11,East,81,9.0,12.0,-999,-99.99,,,-99.99,,2013-09-10 15:54:00,
2013-09-10 12:13:00,-999.0,-99.9,30.11,ENE,78,8.0,13.0,-999,-99.99,,,-99.99,,2013-09-10 16:13:00,
2013-09-10 12:43:00,-999.0,-99.9,30.10,ENE,74,8.0,15.0,-999,-99.99,,,-99.99,,2013-09-10 16:43:00,
2013-09-10 13:03:00,-999.0,-99.9,30.10,East,83,10.0,13.0,-999,-99.99,,,-99.99,,2013-09-10 17:03:00,
2013-09-10 13:12:00,-999.0,-99.9,30.10,ENE,77,7.0,13.0,-999,-99.99,,,-99.99,,2013-09-10 17:12:00,
2013-09-10 13:23:00,-999.0,-99.9,30.10,East,80,9.0,13.0,-999,-99.99,,,-99.99,,2013-09-10 17:23:00,
2013-09-10 13:34:00,-999.0,-99.9,30.10,East,82,8.0,13.0,-999,-99.99,,,-99.99,,2013-09-10 17:34:00,
2013-09-10 13:43:00,-999.0,-99.9,30.10,East,81,8.0,12.0,-999,-99.99,,,-99.99,,2013-09-10 17:43:00,
2013-09-10 13:53:00,-999.0,-99.9,30.10,ENE,74,7.0,11.0,-999,-99.99,,,-99.99,,2013-09-10 17:53:00,
2013-09-10 14:02:00,-999.0,-99.9,30.10,East,83,7.0,12.0,-999,-99.99,,,-99.99,,2013-09-10 18:02:00,
2013-09-10 14:43:00,-999.0,-99.9,30.08,ENE,78,8.0,12.0,-999,-99.99,,,-99.99,,2013-09-10 18:43:00,
2013-09-10 14:52:00,-999.0,-99.9,30.08,NE,56,9.0,13.0,-999,-99.99,,,-99.99,,2013-09-10 18:52:00,
2013-09-10 15:12:00,-999.0,-99.9,30.07,ENE,62,7.0,12.0,-999,-99.99,,,-99.99,,2013-09-10 19:12:00,
2013-09-10 15:53:00,89.0,-99.9,30.06,North,-999,-999.0,-999.0,-999,-99.99,,,-99.99,,2013-09-10 19:53:00,
2013-09-10 16:12:00,-999.0,-99.9,30.05,ENE,77,7.0,12.0,-999,-99.99,,,-99.99,,2013-09-10 20:12:00,
2013-09-10 16:33:00,-999.0,-99.9,30.04,ENE,76,8.0,13.0,-999,-99.99,,,-99.99,,2013-09-10 20:33:00,
2013-09-10 16:42:00,-999.0,-99.9,30.04,ENE,76,7.0,13.0,-999,-99.99,,,-99.99,,2013-09-10 20:42:00,
2013-09-10 16:52:00,-999.0,-99.9,30.03,ENE,74,6.0,13.0,-999,-99.99,,,-99.99,,2013-09-10 20:52:00,
2013-09-10 17:12:00,-999.0,-99.9,30.03,ENE,57,8.0,13.0,-999,-99.99,,,-99.99,,2013-09-10 21:12:00,
2013-09-10 17:44:00,-999.0,-99.9,30.03,ENE,74,7.0,15.0,-999,-99.99,,,-99.99,,2013-09-10 21:44:00,
2013-09-10 17:54:00,-999.0,-99.9,30.03,ENE,74,8.0,17.0,-999,-99.99,,,-99.99,,2013-09-10 21:54:00,
2013-09-10 18:14:00,-999.0,-99.9,30.03,ENE,72,9.0,14.0,-999,-99.99,,,-99.99,,2013-09-10 22:14:00,
2013-09-10 18:33:00,-999.0,-99.9,30.04,ENE,78,13.0,20.0,-999,-99.99,,,-99.99,,2013-09-10 22:33:00,
2013-09-10 18:42:00,-999.0,-99.9,30.04,ENE,73,9.0,16.0,-999,-99.99,,,-99.99,,2013-09-10 22:42:00,
2013-09-10 19:13:00,-999.0,-99.9,30.04,East,80,11.0,18.0,-999,-99.99,,,-99.99,,2013-09-10 23:13:00,
2013-09-10 19:23:00,-999.0,-99.9,30.04,ENE,77,9.0,16.0,-999,-99.99,,,-99.99,,2013-09-10 23:23:00,
2013-09-10 19:34:00,-999.0,-99.9,30.05,East,79,11.0,14.0,-999,-99.99,,,-99.99,,2013-09-10 23:34:00,
2013-09-10 20:11:00,-999.0,-99.9,30.05,East,86,11.0,15.0,-999,-99.99,,,-99.99,,2013-09-11 00:11:00,
2013-09-10 20:32:00,-999.0,-99.9,30.05,East,83,12.0,16.0,-999,-99.99,,,-99.99,,2013-09-11 00:32:00,
2013-09-10 21:11:00,-999.0,-99.9,30.07,East,94,12.0,16.0,-999,-99.99,,,-99.99,,2013-09-11 01:11:00,
2013-09-10 21:42:00,-999.0,-99.9,30.08,East,92,13.0,19.0,-999,-99.99,,,-99.99,,2013-09-11 01:42:00,
2013-09-10 21:53:00,-999.0,-99.9,30.09,East,92,12.0,18.0,-999,-99.99,,,-99.99,,2013-09-11 01:53:00,
2013-09-10 22:11:00,-999.0,-99.9,30.10,East,86,16.0,21.0,-999,-99.99,,,-99.99,,2013-09-11 02:11:00,
2013-09-10 22:43:00,-999.0,-99.9,30.10,East,88,14.0,18.0,-999,-99.99,,,-99.99,,2013-09-11 02:43:00,
2013-09-10 22:52:00,-999.0,-99.9,30.10,East,87,15.0,21.0,-999,-99.99,,,-99.99,,2013-09-11 02:52:00,
2013-09-10 23:02:00,-999.0,-99.9,30.10,East,88,14.0,18.0,-999,-99.99,,,-99.99,,2013-09-11 03:02:00,
2013-09-10 23:12:00,-999.0,-99.9,30.10,East,83,12.0,17.0,-999,-99.99,,,-99.99,,2013-09-11 03:12:00,
2013-09-10 23:23:00,-999.0,-99.9,30.10,East,90,13.0,18.0,-999,-99.99,,,-99.99,,2013-09-11 03:23:00,
2013-09-10 23:45:00,-999.0,-99.9,30.10,East,88,12.0,17.0,-999,-99.99,,,-99.99,,2013-09-11 03:45:00,
2013-09-10 23:55:00,-999.0,-99.9,30.10,East,88,12.0,16.0,-999,-99.99,,,-99.99,,2013-09-11 03:55:00,